Time;durP1;ratioP1;P1;durP2;ratioP2;P2;SDS_P1;SDS_P2;PMS_P1;PMS_P2;Temp;Humidity;BMP_temperature;BMP_pressure;BME280_temperature;BME280_humidity;BME280_pressure;Samples;Min_cycle;Max_cycle;Signal;HPM_P1;HPM_P2
2022/09/20 00:01:21;;;;;;;11.13;1.73;;;10.20;99.90;;;;;;5074116;28;20082;-56
2022/09/20 00:03:50;;;;;;;10.50;1.65;;;10.10;99.90;;;;;;5073906;28;20039;-56
2022/09/20 00:06:18;;;;;;;5.23;1.60;;;10.10;99.90;;;;;;5074316;28;20040;-56
2022/09/20 00:08:44;;;;;;;9.00;1.45;;;10.10;99.90;;;;;;5074765;28;20373;-56
2022/09/20 00:11:17;;;;;;;13.82;1.58;;;10.10;99.90;;;;;;5074371;28;20046;-56
2022/09/20 00:13:45;;;;;;;12.07;2.53;;;10.00;99.90;;;;;;5074597;28;20036;-56
2022/09/20 00:16:20;;;;;;;13.23;1.65;;;9.90;99.90;;;;;;5074601;28;20048;-56
2022/09/20 00:18:50;;;;;;;7.30;1.88;;;10.00;99.90;;;;;;5074385;28;20036;-56
2022/09/20 00:21:18;;;;;;;12.00;1.20;;;9.90;99.90;;;;;;5074504;28;20033;-56
2022/09/20 00:23:44;;;;;;;8.40;1.60;;;9.90;99.90;;;;;;5074468;28;20063;-56
2022/09/20 00:26:10;;;;;;;8.68;1.50;;;9.80;99.90;;;;;;5074288;28;20054;-56
2022/09/20 00:28:36;;;;;;;6.68;1.45;;;9.80;99.90;;;;;;5074290;28;20390;-55
2022/09/20 00:31:02;;;;;;;7.15;1.45;;;9.80;99.90;;;;;;5073533;28;20032;-56
2022/09/20 00:35:06;;;;;;;5.47;1.30;;;9.70;99.90;;;;;;5072197;28;20044;-56
2022/09/20 00:36:13;;;;;;;10.05;2.28;;;9.70;99.90;;;;;;5074543;28;20644;-56
2022/09/20 00:38:39;;;;;;;8.77;1.17;;;9.70;99.90;;;;;;5074234;28;20115;-56
2022/09/20 00:41:04;;;;;;;10.45;1.50;;;9.70;99.90;;;;;;5074215;28;20028;-56
2022/09/20 00:43:40;;;;;;;7.00;1.58;;;9.70;99.90;;;;;;5073996;28;20044;-56
2022/09/20 00:46:20;;;;;;;5.68;1.10;;;9.60;99.90;;;;;;5073991;28;20043;-55
2022/09/20 00:48:47;;;;;;;8.07;1.70;;;9.60;99.90;;;;;;5074070;28;20106;-56
2022/09/20 00:51:17;;;;;;;4.68;1.30;;;9.60;99.90;;;;;;5073875;28;20055;-56
2022/09/20 00:53:47;;;;;;;11.65;2.03;;;9.50;99.90;;;;;;5073878;28;20437;-56
2022/09/20 00:56:26;;;;;;;7.57;1.17;;;9.40;99.90;;;;;;5072612;28;20032;-56
2022/09/20 00:59:21;;;;;;;10.05;2.50;;;9.40;99.90;;;;;;5073476;28;20075;-56
2022/09/20 01:02:01;;;;;;;8.50;1.60;;;9.40;99.90;;;;;;5051631;28;20049;-56
2022/09/20 01:04:27;;;;;;;8.68;1.63;;;9.40;99.90;;;;;;5051472;28;20087;-59
2022/09/20 01:06:56;;;;;;;8.73;1.10;;;9.30;99.90;;;;;;5051703;28;20072;-56
2022/09/20 01:09:21;;;;;;;4.97;1.05;;;9.30;99.90;;;;;;5051602;28;20044;-57
2022/09/20 01:11:49;;;;;;;9.43;2.03;;;9.30;99.90;;;;;;5051433;28;20423;-56
2022/09/20 01:14:17;;;;;;;9.13;1.65;;;9.30;99.90;;;;;;5051533;28;20033;-55
2022/09/20 01:16:43;;;;;;;5.57;1.05;;;9.20;99.90;;;;;;5051380;28;20080;-56
2022/09/20 01:19:26;;;;;;;5.28;1.45;;;9.20;99.90;;;;;;5051484;28;20053;-56
2022/09/20 01:21:53;;;;;;;3.63;1.60;;;9.10;99.90;;;;;;5051499;28;20095;-57
2022/09/20 01:24:37;;;;;;;7.15;2.28;;;9.00;99.90;;;;;;5051301;28;20037;-56
2022/09/20 01:27:20;;;;;;;15.25;2.15;;;9.00;99.90;;;;;;5051411;28;20098;-56
2022/09/20 01:29:58;;;;;;;8.77;2.28;;;8.80;99.90;;;;;;5051252;28;20591;-56
2022/09/20 01:32:37;;;;;;;6.25;1.73;;;8.90;99.90;;;;;;5051437;28;20466;-56
2022/09/20 01:35:03;;;;;;;8.90;1.38;;;9.00;99.90;;;;;;5051204;28;20070;-56
2022/09/20 01:37:49;;;;;;;7.25;1.58;;;9.00;99.90;;;;;;5056273;28;20055;-56
2022/09/20 01:40:23;;;;;;;5.78;1.83;;;9.10;99.90;;;;;;5073407;28;20037;-56
2022/09/20 01:43:00;;;;;;;7.95;1.33;;;9.10;99.90;;;;;;5073503;28;20043;-56
2022/09/20 01:45:28;;;;;;;4.55;1.30;;;9.10;99.90;;;;;;5073511;28;20037;-56
2022/09/20 01:47:54;;;;;;;3.88;1.98;;;9.10;99.90;;;;;;5073439;28;20040;-56
2022/09/20 01:51:04;;;;;;;7.78;1.48;;;9.20;99.90;;;;;;5072070;28;20371;-56
2022/09/20 01:53:49;;;;;;;13.52;1.88;;;9.10;99.90;;;;;;5073331;28;20106;-57
2022/09/20 01:56:33;;;;;;;7.47;2.58;;;9.10;99.90;;;;;;5073290;28;20087;-56
2022/09/20 01:59:21;;;;;;;7.57;1.35;;;9.10;99.90;;;;;;5073182;28;20037;-56
2022/09/20 02:01:52;;;;;;;3.25;1.05;;;9.00;99.90;;;;;;5073098;28;20123;-56
2022/09/20 02:04:39;;;;;;;9.07;1.60;;;9.00;99.90;;;;;;5073193;28;20040;-56
2022/09/20 02:07:55;;;;;;;6.20;0.90;;;9.00;99.90;;;;;;5073088;28;20032;-56
2022/09/20 02:10:46;;;;;;;7.72;1.15;;;8.90;99.90;;;;;;5051494;28;20045;-56
2022/09/20 02:13:28;;;;;;;5.90;1.65;;;8.80;99.90;;;;;;5054671;28;20114;-56
2022/09/20 02:16:15;;;;;;;11.52;1.73;;;8.70;99.90;;;;;;5054674;28;20099;-56
2022/09/20 02:19:08;;;;;;;10.13;1.70;;;8.50;99.90;;;;;;5054599;28;20471;-56
2022/09/20 02:21:41;;;;;;;8.52;1.50;;;8.60;99.90;;;;;;5054563;28;20480;-56
2022/09/20 02:24:27;;;;;;;5.78;1.35;;;8.60;99.90;;;;;;5038081;28;20057;-56
2022/09/20 02:27:22;;;;;;;13.73;2.45;;;8.50;99.90;;;;;;5054551;28;20045;-55
2022/09/20 02:30:11;;;;;;;7.63;1.95;;;8.50;99.90;;;;;;5054517;28;20041;-55
2022/09/20 02:33:10;;;;;;;9.02;1.80;;;8.30;99.90;;;;;;5054398;28;20107;-56
2022/09/20 02:35:54;;;;;;;7.82;2.08;;;8.30;99.90;;;;;;5054007;28;20041;-56
2022/09/20 02:38:41;;;;;;;4.55;2.03;;;8.30;99.90;;;;;;5054188;28;20072;-56
2022/09/20 02:41:12;;;;;;;4.43;1.35;;;8.30;99.90;;;;;;5054123;28;20498;-55
2022/09/20 02:43:44;;;;;;;6.00;1.23;;;8.30;99.90;;;;;;5054141;28;20480;-55
2022/09/20 02:46:20;;;;;;;7.68;1.75;;;8.20;99.90;;;;;;5069841;28;20048;-55
2022/09/20 02:49:24;;;;;;;6.88;1.70;;;8.10;99.90;;;;;;5076267;28;20387;-55
2022/09/20 02:52:13;;;;;;;6.82;2.28;;;8.20;99.90;;;;;;5076059;28;20060;-56
2022/09/20 02:54:51;;;;;;;4.50;1.45;;;8.30;99.90;;;;;;5054203;28;20057;-56
2022/09/20 02:57:36;;;;;;;8.90;1.80;;;8.40;99.90;;;;;;5054108;28;20071;-56
2022/09/20 03:00:08;;;;;;;8.13;1.80;;;8.40;99.90;;;;;;5053812;28;20183;-56
2022/09/20 03:03:00;;;;;;;5.35;1.80;;;8.40;99.90;;;;;;5054120;28;20044;-55
2022/09/20 03:05:35;;;;;;;9.25;3.20;;;8.30;99.90;;;;;;5053850;28;20044;-56
2022/09/20 03:08:14;;;;;;;4.68;1.20;;;8.30;99.90;;;;;;5053829;28;20394;-56
2022/09/20 03:10:48;;;;;;;6.00;1.58;;;8.30;99.90;;;;;;5053660;28;20059;-55
2022/09/20 03:13:35;;;;;;;6.10;1.23;;;8.30;99.90;;;;;;5053571;28;20161;-56
2022/09/20 03:16:15;;;;;;;5.80;1.05;;;8.10;99.90;;;;;;5053614;28;20083;-56
2022/09/20 03:19:16;;;;;;;9.65;1.77;;;8.10;99.90;;;;;;5053457;28;20048;-56
2022/09/20 03:22:00;;;;;;;7.07;1.15;;;8.10;99.90;;;;;;5053362;28;20115;-56
2022/09/20 03:24:56;;;;;;;3.80;1.38;;;8.10;99.90;;;;;;5052980;28;20115;-56
2022/09/20 03:27:38;;;;;;;6.30;2.15;;;8.10;99.90;;;;;;5053312;28;20044;-56
2022/09/20 03:30:35;;;;;;;5.03;1.08;;;8.10;99.90;;;;;;5053342;28;20037;-56
2022/09/20 03:33:04;;;;;;;2.97;0.98;;;8.00;99.90;;;;;;5053158;28;20072;-56
2022/09/20 03:35:42;;;;;;;10.75;1.73;;;8.00;99.90;;;;;;5053096;28;20160;-56
2022/09/20 03:38:22;;;;;;;7.57;2.15;;;8.00;99.90;;;;;;5053272;28;20045;-54
2022/09/20 03:40:55;;;;;;;4.40;1.05;;;8.00;99.90;;;;;;5053187;28;20119;-56
2022/09/20 03:43:59;;;;;;;4.05;0.90;;;8.10;99.90;;;;;;5052884;28;20053;-56
2022/09/20 03:46:45;;;;;;;5.10;1.30;;;8.20;99.90;;;;;;5052849;28;20048;-55
2022/09/20 03:49:38;;;;;;;7.65;1.42;;;8.10;99.90;;;;;;5052943;28;20052;-55
2022/09/20 03:52:21;;;;;;;4.30;1.23;;;8.20;99.90;;;;;;5052630;28;20149;-56
2022/09/20 03:55:07;;;;;;;11.65;2.15;;;8.30;99.90;;;;;;5052739;28;20045;-55
2022/09/20 03:57:51;;;;;;;11.10;1.50;;;8.30;99.90;;;;;;5052891;28;20442;-56
2022/09/20 04:00:21;;;;;;;6.68;1.30;;;8.40;99.90;;;;;;5052729;28;20037;-55
2022/09/20 04:02:56;;;;;;;3.65;1.23;;;8.50;99.90;;;;;;5052989;28;20551;-56
2022/09/20 04:05:49;;;;;;;4.15;1.52;;;8.50;99.90;;;;;;5052635;28;20099;-55
2022/09/20 04:08:51;;;;;;;8.73;1.63;;;8.60;99.90;;;;;;5053344;28;20044;-55
2022/09/20 04:11:34;;;;;;;;;;;8.70;99.90;;;;;;5075127;28;20048;-56
2022/09/20 04:14:28;;;;;;;7.18;1.67;;;8.70;99.90;;;;;;5074766;28;19920;-56
2022/09/20 04:17:19;;;;;;;7.25;1.65;;;8.70;99.90;;;;;;5074404;28;20422;-55
2022/09/20 04:20:02;;;;;;;6.05;1.15;;;8.90;99.90;;;;;;5074651;28;20036;-56
2022/09/20 04:22:28;;;;;;;5.07;1.40;;;8.90;99.90;;;;;;5074325;28;20044;-55
2022/09/20 04:24:59;;;;;;;6.85;1.30;;;8.90;99.90;;;;;;5074416;28;20040;-55
2022/09/20 04:27:28;;;;;;;7.97;1.80;;;8.90;99.90;;;;;;5074319;28;20068;-56
2022/09/20 04:30:07;;;;;;;6.45;1.42;;;8.90;99.90;;;;;;5074124;28;20489;-55
2022/09/20 04:32:42;;;;;;;9.40;1.63;;;9.00;99.90;;;;;;5074355;28;20040;-56
2022/09/20 04:38:13;;;;;;;7.65;1.60;;;9.10;99.90;;;;;;5074254;28;20075;-56
2022/09/20 04:41:01;;;;;;;5.60;1.27;;;9.10;99.90;;;;;;5074174;28;20048;-56
2022/09/20 04:43:57;;;;;;;9.30;1.63;;;9.10;99.90;;;;;;5074169;28;20071;-56
2022/09/20 04:46:31;;;;;;;3.83;1.00;;;9.10;99.90;;;;;;5074035;28;20044;-56
2022/09/20 04:49:24;;;;;;;5.05;1.55;;;9.10;99.90;;;;;;5074130;28;20046;-56
2022/09/20 04:52:35;;;;;;;4.47;1.17;;;9.20;99.90;;;;;;5072325;28;20053;-57
2022/09/20 04:55:12;;;;;;;5.07;1.38;;;9.20;99.90;;;;;;5051594;28;20056;-56
2022/09/20 04:58:03;;;;;;;5.75;1.35;;;9.30;99.90;;;;;;5052067;28;20037;-56
2022/09/20 05:01:02;;;;;;;8.93;1.80;;;9.20;99.90;;;;;;5051203;28;20091;-56
2022/09/20 05:03:52;;;;;;;7.78;1.38;;;9.20;99.90;;;;;;5050913;28;20037;-56
2022/09/20 05:06:49;;;;;;;4.43;1.17;;;9.20;99.90;;;;;;5051516;28;20045;-55
2022/09/20 05:09:49;;;;;;;5.63;1.17;;;9.20;99.90;;;;;;5051550;28;20506;-55
2022/09/20 05:12:47;;;;;;;25.40;1.75;;;9.20;99.90;;;;;;5051591;28;20055;-55
2022/09/20 05:15:35;;;;;;;5.70;1.15;;;9.20;99.90;;;;;;5051409;28;20065;-56
2022/09/20 05:18:25;;;;;;;4.32;1.05;;;9.20;99.90;;;;;;5051335;28;20087;-56
2022/09/20 05:21:08;;;;;;;7.07;1.38;;;9.20;99.90;;;;;;5051545;28;20138;-55
2022/09/20 05:24:10;;;;;;;6.00;1.30;;;9.20;99.90;;;;;;5051548;28;20121;-56
2022/09/20 05:27:12;;;;;;;4.60;1.00;;;9.20;99.90;;;;;;5051405;28;20041;-56
2022/09/20 05:30:10;;;;;;;4.32;1.15;;;9.40;99.90;;;;;;5051114;28;20053;-55
2022/09/20 05:33:08;;;;;;;6.15;1.67;;;9.40;99.90;;;;;;5071565;28;20072;-56
2022/09/20 05:35:43;;;;;;;3.70;1.08;;;9.50;99.90;;;;;;5072480;28;20036;-55
2022/09/20 05:38:24;;;;;;;7.68;1.60;;;9.50;99.90;;;;;;5073529;28;20037;-56
2022/09/20 05:41:23;;;;;;;4.50;1.25;;;9.60;99.90;;;;;;5073732;28;20515;-56
2022/09/20 05:43:54;;;;;;;4.22;1.45;;;9.70;99.90;;;;;;5072285;28;20040;-56
2022/09/20 05:46:33;;;;;;;7.85;2.08;;;9.70;99.90;;;;;;5075023;28;20075;-56
2022/09/20 05:49:14;;;;;;;6.00;1.30;;;9.70;99.90;;;;;;5077531;28;20145;-55
2022/09/20 05:51:52;;;;;;;1.75;1.08;;;9.70;99.90;;;;;;5076948;28;20427;-55
2022/09/20 05:54:24;;;;;;;3.92;1.60;;;9.80;99.90;;;;;;5077157;28;20040;-56
2022/09/20 05:57:10;;;;;;;5.28;1.30;;;9.70;99.90;;;;;;5077196;28;20059;-56
2022/09/20 05:59:46;;;;;;;7.32;1.23;;;9.70;99.90;;;;;;5076876;28;20045;-56
2022/09/20 06:02:20;;;;;;;6.00;1.20;;;9.80;99.90;;;;;;5076007;28;20028;-55
2022/09/20 06:05:06;;;;;;;9.85;1.70;;;9.70;99.90;;;;;;5075971;28;20041;-56
2022/09/20 06:07:51;;;;;;;4.13;1.10;;;9.70;99.90;;;;;;5077033;28;20122;-56
2022/09/20 06:10:29;;;;;;;8.75;1.58;;;9.70;99.90;;;;;;5076868;28;20105;-56
2022/09/20 06:13:05;;;;;;;4.75;1.23;;;9.70;99.90;;;;;;5076862;28;20033;-55
2022/09/20 06:15:43;;;;;;;6.43;1.63;;;9.80;99.90;;;;;;5076833;28;20067;-56
2022/09/20 06:18:19;;;;;;;6.40;1.60;;;10.00;99.90;;;;;;5076879;28;20040;-56
2022/09/20 06:20:55;;;;;;;7.18;1.75;;;10.10;99.90;;;;;;5076798;28;20036;-56
2022/09/20 06:23:22;;;;;;;6.93;1.77;;;10.20;99.90;;;;;;5076759;28;20033;-56
2022/09/20 06:25:58;;;;;;;8.35;1.50;;;10.50;99.90;;;;;;5076701;28;20040;-56
2022/09/20 06:28:29;;;;;;;3.03;1.38;;;10.50;99.90;;;;;;5076734;28;20036;-56
2022/09/20 06:30:56;;;;;;;6.38;1.80;;;10.70;99.90;;;;;;5075608;28;20470;-56
2022/09/20 06:33:28;;;;;;;4.50;1.40;;;10.80;99.90;;;;;;5075485;28;20032;-56
2022/09/20 06:41:56;;;;;;;9.52;1.50;;;10.90;99.90;;;;;;5076316;28;20098;-57
2022/09/20 06:44:22;;;;;;;8.18;1.50;;;11.00;99.90;;;;;;5076409;28;20041;-56
2022/09/20 06:46:48;;;;;;;7.40;1.50;;;11.00;99.90;;;;;;5076081;28;20044;-57
2022/09/20 06:49:14;;;;;;;7.28;2.25;;;11.00;99.90;;;;;;5076338;28;20040;-56
2022/09/20 06:51:40;;;;;;;7.20;1.60;;;11.00;99.90;;;;;;5074560;28;20064;-57
2022/09/20 06:54:11;;;;;;;9.50;1.48;;;11.00;99.90;;;;;;5076283;28;20053;-56
2022/09/20 06:56:37;;;;;;;3.67;0.98;;;11.00;99.90;;;;;;5075744;28;20479;-55
2022/09/20 06:59:07;;;;;;;14.32;2.30;;;11.10;99.90;;;;;;5075270;28;20037;-55
2022/09/20 07:01:32;;;;;;;7.20;1.35;;;11.10;99.90;;;;;;5057771;28;20048;-56
2022/09/20 07:03:58;;;;;;;7.15;1.30;;;11.20;99.90;;;;;;5076046;28;20037;-55
2022/09/20 07:06:25;;;;;;;7.55;2.67;;;11.20;99.90;;;;;;5075808;28;20036;-55
2022/09/20 07:08:51;;;;;;;5.38;1.58;;;11.20;99.90;;;;;;5075699;28;20510;-56
2022/09/20 07:11:16;;;;;;;8.05;1.55;;;11.30;99.90;;;;;;5075953;28;20062;-56
2022/09/20 07:13:43;;;;;;;11.85;1.60;;;11.30;99.90;;;;;;5075839;28;20394;-55
2022/09/20 07:16:13;;;;;;;5.28;1.20;;;11.30;99.90;;;;;;5075743;28;20051;-56
2022/09/20 07:18:40;;;;;;;9.93;2.70;;;11.40;99.90;;;;;;5074271;28;20094;-56
2022/09/20 07:21:07;;;;;;;6.70;1.95;;;11.60;99.90;;;;;;5075778;28;20059;-56
2022/09/20 07:23:33;;;;;;;6.95;2.60;;;11.70;99.90;;;;;;5075666;28;20040;-55
2022/09/20 07:26:00;;;;;;;7.43;2.03;;;12.10;99.90;;;;;;5075773;28;20097;-56
2022/09/20 07:28:32;;;;;;;6.88;1.80;;;12.40;99.90;;;;;;5075192;28;20055;-55
2022/09/20 07:30:58;;;;;;;10.10;1.77;;;13.20;99.90;;;;;;5075542;28;20039;-54
2022/09/20 07:33:24;;;;;;;4.78;1.73;;;13.70;99.90;;;;;;5075530;28;20127;-55
2022/09/20 07:35:53;;;;;;;7.43;1.90;;;14.30;99.90;;;;;;5074014;28;20045;-56
2022/09/20 07:38:20;;;;;;;4.32;1.17;;;14.70;99.90;;;;;;5075438;28;20037;-56
2022/09/20 07:40:54;;;;;;;4.32;1.30;;;15.30;99.90;;;;;;5075342;28;20170;-55
2022/09/20 07:43:21;;;;;;;4.93;1.00;;;15.80;99.90;;;;;;5075322;28;20060;-55
2022/09/20 07:45:53;;;;;;;4.63;0.70;;;16.30;99.90;;;;;;5075273;28;20040;-54
2022/09/20 07:48:19;;;;;;;4.05;1.10;;;16.60;99.90;;;;;;5075123;28;20124;-55
2022/09/20 07:51:01;;;;;;;5.03;0.80;;;17.00;99.90;;;;;;5075195;28;20170;-55
2022/09/20 07:53:28;;;;;;;3.72;0.77;;;17.40;99.90;;;;;;5074886;28;20056;-56
2022/09/20 07:56:03;;;;;;;7.30;1.27;;;17.80;99.90;;;;;;5074908;28;20383;-56
2022/09/20 07:58:32;;;;;;;5.03;0.80;;;17.90;99.90;;;;;;5074961;28;20037;-56
2022/09/20 08:01:00;;;;;;;5.43;1.02;;;17.90;99.90;;;;;;5074828;28;20047;-56
2022/09/20 08:03:27;;;;;;;4.57;1.23;;;17.80;99.90;;;;;;5074794;28;20514;-56
2022/09/20 08:06:02;;;;;;;4.43;1.20;;;17.50;99.90;;;;;;5074816;28;20040;-56
2022/09/20 08:08:32;;;;;;;5.80;1.05;;;17.50;99.90;;;;;;5074532;28;20040;-56
2022/09/20 08:11:12;;;;;;;5.72;1.38;;;17.80;99.90;;;;;;5074683;28;20129;-56
2022/09/20 08:13:39;;;;;;;6.88;1.02;;;18.10;99.90;;;;;;5074583;28;20550;-56
2022/09/20 08:16:09;;;;;;;5.25;1.08;;;18.30;99.90;;;;;;5074572;28;20060;-56
2022/09/20 08:18:35;;;;;;;4.18;0.90;;;18.70;99.90;;;;;;5073298;28;20094;-57
2022/09/20 08:21:06;;;;;;;8.70;1.10;;;18.80;99.90;;;;;;5074569;28;20047;-57
2022/09/20 08:23:40;;;;;;;5.20;0.93;;;19.20;99.90;;;;;;5074516;28;20064;-55
2022/09/20 08:26:10;;;;;;;3.65;1.23;;;19.40;99.90;;;;;;5074344;28;20111;-55
2022/09/20 08:28:37;;;;;;;6.00;1.48;;;19.30;99.90;;;;;;5074493;28;20483;-56
2022/09/20 08:31:07;;;;;;;6.57;1.00;;;19.10;99.90;;;;;;5074334;28;20033;-55
2022/09/20 08:33:36;;;;;;;5.05;0.82;;;18.80;99.90;;;;;;5074406;28;20131;-54
2022/09/20 08:36:03;;;;;;;4.30;1.20;;;18.80;99.90;;;;;;5074120;28;20497;-55
2022/09/20 08:38:31;;;;;;;3.00;1.45;;;19.10;99.90;;;;;;5074241;28;20036;-54
2022/09/20 08:41:00;;;;;;;7.90;1.30;;;19.60;99.90;;;;;;5074229;28;20111;-55
2022/09/20 08:43:33;;;;;;;6.78;1.27;;;19.80;99.90;;;;;;5073982;28;20101;-55
2022/09/20 08:46:01;;;;;;;7.72;1.10;;;20.10;99.90;;;;;;5074156;28;20041;-55
2022/09/20 08:48:33;;;;;;;5.68;1.35;;;20.50;99.90;;;;;;5074127;28;20376;-54
2022/09/20 08:51:01;;;;;;;3.88;0.70;;;20.40;99.90;;;;;;5074041;28;20036;-55
2022/09/20 08:53:28;;;;;;;2.63;0.80;;;20.40;99.90;;;;;;5073778;28;20059;-55
2022/09/20 08:55:56;;;;;;;3.90;0.90;;;19.70;99.90;;;;;;5073519;28;20037;-55
2022/09/20 08:58:23;;;;;;;12.48;0.98;;;19.30;99.90;;;;;;5073945;28;20040;-55
2022/09/20 09:00:49;;;;;;;3.60;0.65;;;19.10;99.90;;;;;;5073741;28;20479;-55
2022/09/20 09:03:16;;;;;;;3.75;0.88;;;18.90;99.90;;;;;;5073780;28;20058;-56
2022/09/20 09:05:51;;;;;;;3.53;0.60;;;18.50;99.90;;;;;;5073811;28;20364;-55
2022/09/20 09:08:20;;;;;;;2.25;0.73;;;18.50;99.90;;;;;;5073842;28;20052;-55
2022/09/20 09:11:07;;;;;;;2.25;0.80;;;18.30;99.90;;;;;;5073771;28;20049;-55
2022/09/20 09:13:54;;;;;;;2.95;0.80;;;18.50;99.90;;;;;;5073622;28;20044;-54
2022/09/20 09:16:23;;;;;;;6.32;0.80;;;18.60;99.90;;;;;;5073611;28;20447;-55
2022/09/20 09:18:50;;;;;;;2.63;0.50;;;18.70;99.90;;;;;;5073596;28;20448;-56
2022/09/20 09:21:27;;;;;;;3.95;0.88;;;18.70;99.90;;;;;;5072850;28;20079;-55
2022/09/20 09:24:14;;;;;;;6.70;0.70;;;18.70;99.90;;;;;;5073668;28;20123;-55
2022/09/20 09:26:45;;;;;;;19.60;2.22;;;18.60;99.90;;;;;;5073481;28;20495;-55
2022/09/20 09:29:23;;;;;;;2.13;0.52;;;18.40;99.90;;;;;;5073633;28;20040;-55
2022/09/20 09:31:53;;;;;;;2.05;0.70;;;18.00;99.90;;;;;;5072982;28;20036;-54
2022/09/20 09:34:22;;;;;;;2.40;0.60;;;18.00;99.90;;;;;;5072737;28;20454;-55
2022/09/20 09:36:47;;;;;;;2.63;0.57;;;17.90;99.90;;;;;;5073083;28;20479;-54
2022/09/20 09:39:22;;;;;;;6.97;1.17;;;18.00;99.90;;;;;;5073516;28;20081;-55
2022/09/20 09:41:48;;;;;;;3.10;0.47;;;17.80;99.90;;;;;;5073448;28;20043;-56
2022/09/20 09:44:26;;;;;;;2.70;0.70;;;17.80;99.90;;;;;;5073119;28;20044;-55
2022/09/20 09:46:53;;;;;;;4.15;0.73;;;17.90;99.90;;;;;;5073456;28;20045;-56
2022/09/20 09:49:27;;;;;;;2.42;0.50;;;17.90;99.90;;;;;;5073397;28;20064;-55
2022/09/20 09:52:01;;;;;;;6.97;1.67;;;17.90;99.90;;;;;;5073197;28;20056;-55
2022/09/20 09:54:36;;;;;;;3.67;0.68;;;17.80;99.90;;;;;;5073152;28;20048;-55
2022/09/20 09:57:27;;;;;;;3.55;0.80;;;17.70;99.90;;;;;;5073258;28;20116;-54
2022/09/20 10:00:02;;;;;;;2.72;0.60;;;17.80;99.90;;;;;;5073390;28;20048;-54
2022/09/20 10:02:55;;;;;;;3.65;0.68;;;17.90;99.90;;;;;;5072308;28;20040;-56
2022/09/20 10:05:31;;;;;;;3.38;0.68;;;18.00;99.90;;;;;;5072452;28;20033;-54
2022/09/20 10:08:09;;;;;;;3.20;0.50;;;18.10;99.90;;;;;;5073230;28;20051;-55
2022/09/20 10:11:05;;;;;;;3.70;0.70;;;18.20;99.90;;;;;;5073226;28;20051;-54
2022/09/20 10:13:43;;;;;;;10.38;1.65;;;18.10;99.90;;;;;;5073628;28;20048;-55
2022/09/20 10:16:54;;;;;;;5.13;0.90;;;18.10;99.90;;;;;;5072852;28;20499;-55
2022/09/20 10:19:40;;;;;;;5.82;0.70;;;18.00;99.90;;;;;;5050912;28;20083;-55
2022/09/20 10:22:23;;;;;;;3.58;0.70;;;18.20;99.90;;;;;;5050823;28;20049;-55
2022/09/20 10:25:09;;;;;;;7.45;1.30;;;18.00;99.90;;;;;;5051165;28;20040;-55
2022/09/20 10:28:22;;;;;;;6.78;0.93;;;18.10;99.90;;;;;;5050907;28;20037;-54
2022/09/20 10:30:56;;;;;;;4.50;0.70;;;18.10;99.90;;;;;;4971988;28;20047;-54
2022/09/20 10:33:25;;;;;;;11.20;2.13;;;18.20;99.90;;;;;;4975209;28;20134;-55
2022/09/20 10:36:24;;;;;;;7.68;1.35;;;18.30;99.90;;;;;;4975457;28;20145;-55
2022/09/20 10:39:00;;;;;;;5.03;1.98;;;18.30;99.90;;;;;;4975386;28;20043;-55
2022/09/20 10:44:45;;;;;;;3.33;0.70;;;18.10;99.90;;;;;;4975537;28;20521;-55
2022/09/20 10:47:18;;;;;;;9.75;1.30;;;17.80;99.90;;;;;;4975201;28;20051;-55
2022/09/20 10:50:10;;;;;;;5.57;0.88;;;17.60;99.90;;;;;;4975388;28;20046;-55
2022/09/20 10:52:41;;;;;;;5.90;1.25;;;17.70;99.90;;;;;;4975611;28;20181;-58
2022/09/20 10:55:19;;;;;;;4.78;1.27;;;17.80;99.90;;;;;;5001251;28;20049;-56
2022/09/20 10:57:55;;;;;;;5.95;1.20;;;17.90;99.90;;;;;;5014047;28;20042;-56
2022/09/20 11:00:36;;;;;;;6.65;0.85;;;17.80;99.90;;;;;;5014130;28;20053;-56
2022/09/20 11:03:30;;;;;;;6.65;1.20;;;17.80;99.90;;;;;;5014284;28;20054;-55
2022/09/20 11:06:01;;;;;;;6.07;1.00;;;17.80;99.90;;;;;;5014011;28;20041;-55
2022/09/20 11:08:33;;;;;;;7.82;1.60;;;17.80;99.90;;;;;;5074966;28;20127;-56
2022/09/20 11:11:07;;;;;;;7.88;1.30;;;17.80;99.90;;;;;;5076095;28;20044;-55
2022/09/20 11:13:37;;;;;;;7.38;1.35;;;17.80;99.90;;;;;;5075836;28;20372;-54
2022/09/20 11:16:05;;;;;;;3.22;0.68;;;17.70;99.90;;;;;;5075850;28;20082;-55
2022/09/20 11:18:44;;;;;;;10.40;1.05;;;17.70;99.90;;;;;;5075537;28;20476;-56
2022/09/20 11:21:18;;;;;;;7.50;1.10;;;17.80;99.90;;;;;;5075817;28;20085;-55
2022/09/20 11:23:49;;;;;;;5.95;0.80;;;17.80;99.90;;;;;;5075578;28;20495;-55
2022/09/20 11:26:36;;;;;;;4.50;1.73;;;18.00;99.90;;;;;;5076116;28;20123;-55
2022/09/20 11:29:27;;;;;;;4.32;1.05;;;18.40;99.90;;;;;;5074490;28;20559;-55
2022/09/20 11:32:16;;;;;;;5.85;1.00;;;18.50;99.90;;;;;;5053274;28;20049;-55
2022/09/20 11:34:56;;;;;;;4.13;0.90;;;18.90;99.90;;;;;;5053637;28;20568;-55
2022/09/20 11:37:24;;;;;;;;;;;19.20;99.90;;;;;;5053668;28;20053;-55
2022/09/20 11:39:52;;;;;;;4.82;0.75;;;19.60;99.90;;;;;;5053233;28;19917;-55
2022/09/20 11:42:22;;;;;;;4.80;1.27;;;19.80;99.60;;;;;;5053383;28;20044;-54
2022/09/20 11:44:48;;;;;;;7.75;0.75;;;20.10;99.90;;;;;;5052540;28;20492;-55
2022/09/20 11:47:28;;;;;;;2.88;0.90;;;19.90;99.90;;;;;;5052891;28;20119;-54
2022/09/20 11:50:22;;;;;;;6.03;0.90;;;19.50;99.40;;;;;;5053016;28;20052;-63
2022/09/20 11:53:10;;;;;;;3.40;0.77;;;19.00;99.20;;;;;;5052738;28;20455;-64
2022/09/20 11:55:40;;;;;;;4.97;1.42;;;18.70;99.90;;;;;;5052699;28;20132;-56
2022/09/20 11:58:09;;;;;;;3.95;1.00;;;18.30;99.90;;;;;;5052848;28;20121;-56
2022/09/20 12:00:42;;;;;;;2.97;0.63;;;18.40;99.90;;;;;;5052812;28;20099;-63
2022/09/20 12:03:36;;;;;;;2.83;0.75;;;18.80;99.90;;;;;;5052007;28;20391;-63
2022/09/20 12:06:26;;;;;;;7.30;1.23;;;19.30;99.90;;;;;;5051940;28;20538;-57
2022/09/20 12:08:52;;;;;;;7.32;1.15;;;19.60;99.90;;;;;;5062993;28;20054;-56
2022/09/20 12:11:34;;;;;;;4.68;1.00;;;19.50;99.90;;;;;;5074799;28;20425;-55
2022/09/20 12:14:21;;;;;;;4.10;1.17;;;19.00;99.90;;;;;;5074976;28;20394;-55
2022/09/20 12:16:48;;;;;;;6.07;1.00;;;19.00;99.90;;;;;;5074274;28;20421;-56
2022/09/20 12:19:32;;;;;;;4.82;0.88;;;18.80;99.90;;;;;;5074463;28;20514;-56
2022/09/20 12:21:57;;;;;;;6.60;0.98;;;18.70;99.90;;;;;;5074297;28;20553;-56
2022/09/20 12:24:25;;;;;;;4.43;1.13;;;18.70;99.90;;;;;;5074446;28;20112;-55
2022/09/20 12:26:55;;;;;;;8.23;0.90;;;18.40;99.90;;;;;;5074245;28;20517;-55
2022/09/20 12:29:23;;;;;;;2.20;0.82;;;18.40;99.90;;;;;;5074451;28;20044;-56
2022/09/20 12:31:54;;;;;;;4.35;0.90;;;18.30;99.90;;;;;;5073768;28;20064;-55
2022/09/20 12:34:20;;;;;;;8.10;1.15;;;18.20;99.90;;;;;;5073429;28;20130;-55
2022/09/20 12:36:54;;;;;;;8.40;1.10;;;18.40;99.90;;;;;;5073535;28;20076;-55
2022/09/20 12:39:23;;;;;;;7.07;1.00;;;18.70;99.90;;;;;;5074159;28;20036;-54
2022/09/20 12:41:52;;;;;;;6.20;1.13;;;18.80;99.90;;;;;;5074262;28;20040;-55
2022/09/20 12:44:35;;;;;;;6.63;0.90;;;19.00;99.90;;;;;;5073053;28;20028;-54
2022/09/20 12:47:09;;;;;;;7.82;0.90;;;19.10;99.90;;;;;;5074178;28;20062;-54
2022/09/20 12:52:57;;;;;;;3.72;1.10;;;19.00;99.90;;;;;;5073929;28;20406;-55
2022/09/20 12:55:31;;;;;;;2.80;0.68;;;18.90;99.90;;;;;;5073060;28;20105;-55
2022/09/20 12:58:00;;;;;;;2.85;1.20;;;19.00;99.90;;;;;;5072580;28;20475;-55
2022/09/20 13:00:39;;;;;;;2.53;0.52;;;19.10;99.90;;;;;;5073701;28;20502;-55
2022/09/20 13:03:38;;;;;;;4.40;1.10;;;19.20;99.90;;;;;;5073022;28;20513;-56
2022/09/20 13:06:14;;;;;;;7.10;1.48;;;19.40;99.90;;;;;;5073060;28;20098;-54
2022/09/20 13:08:48;;;;;;;2.63;0.68;;;19.50;99.90;;;;;;5073765;28;20048;-55
2022/09/20 13:11:46;;;;;;;3.78;0.77;;;19.50;99.90;;;;;;5073815;28;20070;-55
2022/09/20 13:14:20;;;;;;;6.10;2.15;;;19.10;99.90;;;;;;5052134;28;20076;-56
2022/09/20 13:17:00;;;;;;;4.25;1.00;;;18.80;99.90;;;;;;5051565;28;20083;-55
2022/09/20 13:19:45;;;;;;;6.47;1.15;;;18.50;99.90;;;;;;5051678;28;20059;-55
2022/09/20 13:22:33;;;;;;;6.85;1.20;;;18.50;99.90;;;;;;5051507;28;20095;-55
2022/09/20 13:25:01;;;;;;;4.57;1.13;;;18.40;99.90;;;;;;5051430;28;20053;-56
2022/09/20 13:27:33;;;;;;;6.32;0.82;;;18.40;99.90;;;;;;5051452;28;20048;-56
2022/09/20 13:30:19;;;;;;;6.68;1.33;;;18.40;99.90;;;;;;5051451;28;20131;-64
2022/09/20 13:32:46;;;;;;;3.95;1.10;;;18.10;99.90;;;;;;5050633;28;20041;-55
2022/09/20 13:35:12;;;;;;;5.82;0.95;;;17.90;99.90;;;;;;5050341;28;20111;-64
2022/09/20 13:37:44;;;;;;;4.75;1.10;;;18.10;99.90;;;;;;5051097;28;20146;-56
2022/09/20 13:40:32;;;;;;;5.63;1.02;;;17.90;99.90;;;;;;5051321;28;20045;-65
2022/09/20 13:43:14;;;;;;;6.50;1.10;;;18.00;99.90;;;;;;5051527;28;20361;-64
2022/09/20 13:45:42;;;;;;;5.88;0.98;;;18.20;99.90;;;;;;5051067;28;20080;-65
2022/09/20 13:48:08;;;;;;;5.55;1.00;;;18.40;99.90;;;;;;5051184;28;20041;-65
2022/09/20 13:50:36;;;;;;;5.18;0.90;;;18.30;99.90;;;;;;5057470;28;20048;-65
2022/09/20 13:53:14;;;;;;;4.83;1.20;;;18.30;99.90;;;;;;5073026;28;20079;-66
2022/09/20 13:55:42;;;;;;;5.63;0.95;;;18.30;99.90;;;;;;5073817;28;20044;-65
2022/09/20 13:58:19;;;;;;;4.90;0.90;;;18.20;99.90;;;;;;5073359;28;20040;-65